Main page
METAR-TAF:

METAR-TAF

Airports :

Lieutenant Colonel Rafael Pabón Airport

Villamontes, Bolivia

latitude: 21-15S, longitude: 063-27W, elevation: 398 m

Current weather observation

The report was made 9 hours and 57 minutes ago, at 20:00 UTC
Wind 10 kt from the North with gusts up to 22 kt
Temperature 30°C
Humidity 25%
Pressure 1006 hPa
Visibility 10 km or more

METAR: SLVM 242000Z 36010G22KT 9999 NSC 30/08 Q1006

Time: 01:57 (05:57 UTC)


TAF: missing

Weather observations and forecasts of more than 4000 airports (METAR and TAF reports).

The available stations are represented by yellow and red dots on the map.

Hover mouse over dot to see the name of the station.

Then click to see weather observations and forecasts.

To change the map : click on the green buttons with a black cross to zoom in, on the green button with a dash to zoom out, or on the green arrows for adjacent maps.


METAR-TAF: